sensor_id;sensor_type;location;lat;lon;timestamp;temperature;humidity
14735;DHT22;7458;49.002;8.472;2022-09-17T00:01:01;13.40;99.90
14735;DHT22;7458;49.002;8.472;2022-09-17T00:03:30;13.40;99.90
14735;DHT22;7458;49.002;8.472;2022-09-17T00:06:14;13.30;99.90
14735;DHT22;7458;49.002;8.472;2022-09-17T00:08:40;13.30;99.90
14735;DHT22;7458;49.002;8.472;2022-09-17T00:11:15;13.30;99.90
14735;DHT22;7458;49.002;8.472;2022-09-17T00:13:46;13.40;99.90
14735;DHT22;7458;49.002;8.472;2022-09-17T00:16:31;13.30;99.90
14735;DHT22;7458;49.002;8.472;2022-09-17T00:19:03;13.30;99.90
14735;DHT22;7458;49.002;8.472;2022-09-17T00:21:30;13.40;99.90
14735;DHT22;7458;49.002;8.472;2022-09-17T00:24:02;13.30;99.90
14735;DHT22;7458;49.002;8.472;2022-09-17T00:26:30;13.30;99.90
14735;DHT22;7458;49.002;8.472;2022-09-17T00:28:58;13.40;99.90
14735;DHT22;7458;49.002;8.472;2022-09-17T00:31:24;13.30;99.90
14735;DHT22;7458;49.002;8.472;2022-09-17T00:33:51;13.30;99.90
14735;DHT22;7458;49.002;8.472;2022-09-17T00:36:17;13.30;99.90
14735;DHT22;7458;49.002;8.472;2022-09-17T00:38:51;13.30;99.90
14735;DHT22;7458;49.002;8.472;2022-09-17T00:41:22;13.30;99.90
14735;DHT22;7458;49.002;8.472;2022-09-17T00:43:53;13.20;99.90
14735;DHT22;7458;49.002;8.472;2022-09-17T00:48:52;13.10;99.90
14735;DHT22;7458;49.002;8.472;2022-09-17T00:51:36;13.20;99.90
14735;DHT22;7458;49.002;8.472;2022-09-17T00:54:07;13.20;99.90
14735;DHT22;7458;49.002;8.472;2022-09-17T00:56:37;13.20;99.90
14735;DHT22;7458;49.002;8.472;2022-09-17T00:59:05;13.10;99.90
14735;DHT22;7458;49.002;8.472;2022-09-17T01:01:32;13.20;99.90
14735;DHT22;7458;49.002;8.472;2022-09-17T01:03:58;13.10;99.90
14735;DHT22;7458;49.002;8.472;2022-09-17T01:06:31;13.10;99.90
14735;DHT22;7458;49.002;8.472;2022-09-17T01:33:34;13.00;99.90
14735;DHT22;7458;49.002;8.472;2022-09-17T01:39:05;13.00;99.90
14735;DHT22;7458;49.002;8.472;2022-09-17T01:41:51;13.10;99.90
14735;DHT22;7458;49.002;8.472;2022-09-17T01:44:32;13.10;99.90
14735;DHT22;7458;49.002;8.472;2022-09-17T01:47:28;13.10;99.90
14735;DHT22;7458;49.002;8.472;2022-09-17T01:50:06;13.00;99.90
14735;DHT22;7458;49.002;8.472;2022-09-17T01:52:38;13.00;99.90
14735;DHT22;7458;49.002;8.472;2022-09-17T01:55:10;12.90;99.90
14735;DHT22;7458;49.002;8.472;2022-09-17T01:57:52;12.90;99.90
14735;DHT22;7458;49.002;8.472;2022-09-17T02:00:20;12.90;99.90
14735;DHT22;7458;49.002;8.472;2022-09-17T02:03:09;12.90;99.90
14735;DHT22;7458;49.002;8.472;2022-09-17T02:05:54;12.90;99.90
14735;DHT22;7458;49.002;8.472;2022-09-17T02:08:27;12.90;99.90
14735;DHT22;7458;49.002;8.472;2022-09-17T02:11:09;12.90;99.90
14735;DHT22;7458;49.002;8.472;2022-09-17T02:13:50;12.90;99.90
14735;DHT22;7458;49.002;8.472;2022-09-17T02:16:28;12.90;99.90
14735;DHT22;7458;49.002;8.472;2022-09-17T02:19:12;12.90;99.90
14735;DHT22;7458;49.002;8.472;2022-09-17T02:28:10;12.80;99.90
14735;DHT22;7458;49.002;8.472;2022-09-17T02:30:38;12.70;99.90
14735;DHT22;7458;49.002;8.472;2022-09-17T02:33:06;12.70;99.90
14735;DHT22;7458;49.002;8.472;2022-09-17T02:35:36;12.70;99.90
14735;DHT22;7458;49.002;8.472;2022-09-17T02:38:03;12.60;99.90
14735;DHT22;7458;49.002;8.472;2022-09-17T02:40:34;12.70;99.90
14735;DHT22;7458;49.002;8.472;2022-09-17T02:43:40;12.60;99.90
14735;DHT22;7458;49.002;8.472;2022-09-17T02:46:35;12.50;99.90
14735;DHT22;7458;49.002;8.472;2022-09-17T02:55:21;12.50;99.90
14735;DHT22;7458;49.002;8.472;2022-09-17T02:58:04;12.40;99.90
14735;DHT22;7458;49.002;8.472;2022-09-17T03:00:55;12.40;99.90
14735;DHT22;7458;49.002;8.472;2022-09-17T03:03:32;12.40;99.90
14735;DHT22;7458;49.002;8.472;2022-09-17T03:06:02;12.40;99.90
14735;DHT22;7458;49.002;8.472;2022-09-17T03:08:33;12.40;99.90
14735;DHT22;7458;49.002;8.472;2022-09-17T03:11:02;12.30;99.90
14735;DHT22;7458;49.002;8.472;2022-09-17T03:13:30;12.20;99.90
14735;DHT22;7458;49.002;8.472;2022-09-17T03:15:56;12.20;99.90
14735;DHT22;7458;49.002;8.472;2022-09-17T03:18:22;12.20;99.90
14735;DHT22;7458;49.002;8.472;2022-09-17T03:20:48;12.20;99.90
14735;DHT22;7458;49.002;8.472;2022-09-17T03:23:14;12.20;99.90
14735;DHT22;7458;49.002;8.472;2022-09-17T03:25:40;12.30;99.90
14735;DHT22;7458;49.002;8.472;2022-09-17T03:28:06;12.30;99.90
14735;DHT22;7458;49.002;8.472;2022-09-17T03:30:32;12.30;99.90
14735;DHT22;7458;49.002;8.472;2022-09-17T03:32:57;12.30;99.90
14735;DHT22;7458;49.002;8.472;2022-09-17T03:35:23;12.20;99.90
14735;DHT22;7458;49.002;8.472;2022-09-17T03:37:49;12.20;99.90
14735;DHT22;7458;49.002;8.472;2022-09-17T03:40:15;12.10;99.90
14735;DHT22;7458;49.002;8.472;2022-09-17T03:42:41;12.10;99.90
14735;DHT22;7458;49.002;8.472;2022-09-17T03:45:07;12.10;99.90
14735;DHT22;7458;49.002;8.472;2022-09-17T03:47:33;12.00;99.90
14735;DHT22;7458;49.002;8.472;2022-09-17T03:49:59;12.10;99.90
14735;DHT22;7458;49.002;8.472;2022-09-17T03:52:25;12.00;99.90
14735;DHT22;7458;49.002;8.472;2022-09-17T03:54:50;12.00;99.90
14735;DHT22;7458;49.002;8.472;2022-09-17T03:57:16;12.10;99.90
14735;DHT22;7458;49.002;8.472;2022-09-17T03:59:42;12.10;99.90
14735;DHT22;7458;49.002;8.472;2022-09-17T04:02:07;12.00;99.90
14735;DHT22;7458;49.002;8.472;2022-09-17T04:04:33;12.00;99.90
14735;DHT22;7458;49.002;8.472;2022-09-17T04:06:59;12.00;99.90
14735;DHT22;7458;49.002;8.472;2022-09-17T04:09:24;12.00;99.90
14735;DHT22;7458;49.002;8.472;2022-09-17T04:11:50;12.00;99.90
14735;DHT22;7458;49.002;8.472;2022-09-17T04:14:19;11.80;99.90
14735;DHT22;7458;49.002;8.472;2022-09-17T04:16:44;11.80;99.90
14735;DHT22;7458;49.002;8.472;2022-09-17T04:19:10;11.90;99.90
14735;DHT22;7458;49.002;8.472;2022-09-17T04:21:36;11.80;99.90
14735;DHT22;7458;49.002;8.472;2022-09-17T04:24:02;11.80;99.90
14735;DHT22;7458;49.002;8.472;2022-09-17T04:26:27;11.90;99.90
14735;DHT22;7458;49.002;8.472;2022-09-17T04:28:53;11.90;99.90
14735;DHT22;7458;49.002;8.472;2022-09-17T04:31:19;11.90;99.90
14735;DHT22;7458;49.002;8.472;2022-09-17T04:33:46;11.90;99.90
14735;DHT22;7458;49.002;8.472;2022-09-17T04:36:12;12.00;99.90
14735;DHT22;7458;49.002;8.472;2022-09-17T04:38:38;11.90;99.90
14735;DHT22;7458;49.002;8.472;2022-09-17T04:41:06;11.90;99.90
14735;DHT22;7458;49.002;8.472;2022-09-17T04:43:32;11.90;99.90
14735;DHT22;7458;49.002;8.472;2022-09-17T04:45:58;11.80;99.90
14735;DHT22;7458;49.002;8.472;2022-09-17T04:48:23;11.80;99.90
14735;DHT22;7458;49.002;8.472;2022-09-17T04:50:49;11.80;99.90
14735;DHT22;7458;49.002;8.472;2022-09-17T04:53:16;11.90;99.90
14735;DHT22;7458;49.002;8.472;2022-09-17T04:55:43;11.80;99.90
14735;DHT22;7458;49.002;8.472;2022-09-17T04:58:09;11.90;99.90
14735;DHT22;7458;49.002;8.472;2022-09-17T05:00:35;11.90;99.90
14735;DHT22;7458;49.002;8.472;2022-09-17T05:03:02;11.90;99.90
14735;DHT22;7458;49.002;8.472;2022-09-17T05:05:28;11.90;99.90
14735;DHT22;7458;49.002;8.472;2022-09-17T05:07:54;11.90;99.90
14735;DHT22;7458;49.002;8.472;2022-09-17T05:10:21;11.80;99.90
14735;DHT22;7458;49.002;8.472;2022-09-17T05:12:51;11.80;99.90
14735;DHT22;7458;49.002;8.472;2022-09-17T05:15:19;11.90;99.90
14735;DHT22;7458;49.002;8.472;2022-09-17T05:17:46;11.80;99.90
14735;DHT22;7458;49.002;8.472;2022-09-17T05:20:12;11.80;99.90
14735;DHT22;7458;49.002;8.472;2022-09-17T05:22:49;11.90;99.90
14735;DHT22;7458;49.002;8.472;2022-09-17T05:25:18;11.90;99.90
14735;DHT22;7458;49.002;8.472;2022-09-17T05:27:48;11.80;99.90
14735;DHT22;7458;49.002;8.472;2022-09-17T05:30:14;11.80;99.90
14735;DHT22;7458;49.002;8.472;2022-09-17T05:32:40;11.80;99.90
14735;DHT22;7458;49.002;8.472;2022-09-17T05:35:06;11.80;99.90
14735;DHT22;7458;49.002;8.472;2022-09-17T05:37:33;11.70;99.90
14735;DHT22;7458;49.002;8.472;2022-09-17T05:39:59;11.80;99.90
14735;DHT22;7458;49.002;8.472;2022-09-17T05:42:25;11.80;99.90
14735;DHT22;7458;49.002;8.472;2022-09-17T05:44:50;11.80;99.90
14735;DHT22;7458;49.002;8.472;2022-09-17T05:47:16;11.80;99.90
14735;DHT22;7458;49.002;8.472;2022-09-17T05:49:42;11.80;99.90
14735;DHT22;7458;49.002;8.472;2022-09-17T05:52:08;11.80;99.90
14735;DHT22;7458;49.002;8.472;2022-09-17T05:54:33;11.80;99.90
14735;DHT22;7458;49.002;8.472;2022-09-17T05:56:59;11.80;99.90
14735;DHT22;7458;49.002;8.472;2022-09-17T05:59:26;11.80;99.90
14735;DHT22;7458;49.002;8.472;2022-09-17T06:01:52;11.70;99.90
14735;DHT22;7458;49.002;8.472;2022-09-17T06:04:18;11.70;99.90
14735;DHT22;7458;49.002;8.472;2022-09-17T06:06:43;11.70;99.90
14735;DHT22;7458;49.002;8.472;2022-09-17T06:09:09;11.60;99.90
14735;DHT22;7458;49.002;8.472;2022-09-17T06:11:36;11.50;99.90
14735;DHT22;7458;49.002;8.472;2022-09-17T06:14:02;11.40;99.90
14735;DHT22;7458;49.002;8.472;2022-09-17T06:16:28;11.40;99.90
14735;DHT22;7458;49.002;8.472;2022-09-17T06:18:54;11.50;99.90
14735;DHT22;7458;49.002;8.472;2022-09-17T06:21:20;11.60;99.90
14735;DHT22;7458;49.002;8.472;2022-09-17T06:23:47;11.60;99.90
14735;DHT22;7458;49.002;8.472;2022-09-17T06:26:16;11.50;99.90
14735;DHT22;7458;49.002;8.472;2022-09-17T06:28:42;11.50;99.90
14735;DHT22;7458;49.002;8.472;2022-09-17T06:31:09;11.80;99.90
14735;DHT22;7458;49.002;8.472;2022-09-17T06:33:36;11.70;99.90
14735;DHT22;7458;49.002;8.472;2022-09-17T06:36:08;11.50;99.90
14735;DHT22;7458;49.002;8.472;2022-09-17T06:38:36;11.40;99.90
14735;DHT22;7458;49.002;8.472;2022-09-17T06:41:03;11.30;99.90
14735;DHT22;7458;49.002;8.472;2022-09-17T06:43:29;11.10;99.90
14735;DHT22;7458;49.002;8.472;2022-09-17T06:46:00;11.20;99.90
14735;DHT22;7458;49.002;8.472;2022-09-17T06:48:28;11.10;99.90
14735;DHT22;7458;49.002;8.472;2022-09-17T06:50:55;11.10;99.90
14735;DHT22;7458;49.002;8.472;2022-09-17T06:53:27;11.00;99.90
14735;DHT22;7458;49.002;8.472;2022-09-17T06:55:56;11.10;99.90
14735;DHT22;7458;49.002;8.472;2022-09-17T06:58:23;11.20;99.90
14735;DHT22;7458;49.002;8.472;2022-09-17T07:00:50;11.20;99.90
14735;DHT22;7458;49.002;8.472;2022-09-17T07:03:15;11.40;99.90
14735;DHT22;7458;49.002;8.472;2022-09-17T07:05:42;11.30;99.90
14735;DHT22;7458;49.002;8.472;2022-09-17T07:08:09;11.30;99.90
14735;DHT22;7458;49.002;8.472;2022-09-17T07:10:36;11.30;99.90
14735;DHT22;7458;49.002;8.472;2022-09-17T07:13:02;11.40;99.90
14735;DHT22;7458;49.002;8.472;2022-09-17T07:15:28;11.50;99.90
14735;DHT22;7458;49.002;8.472;2022-09-17T07:17:54;11.50;99.90
14735;DHT22;7458;49.002;8.472;2022-09-17T07:20:20;11.50;99.90
14735;DHT22;7458;49.002;8.472;2022-09-17T07:22:55;11.50;99.90
14735;DHT22;7458;49.002;8.472;2022-09-17T07:25:22;11.60;99.90
14735;DHT22;7458;49.002;8.472;2022-09-17T07:27:52;11.60;99.90
14735;DHT22;7458;49.002;8.472;2022-09-17T07:30:19;11.60;99.90
14735;DHT22;7458;49.002;8.472;2022-09-17T07:32:45;11.70;99.90
14735;DHT22;7458;49.002;8.472;2022-09-17T07:35:11;11.80;99.90
14735;DHT22;7458;49.002;8.472;2022-09-17T07:37:38;12.10;99.90
14735;DHT22;7458;49.002;8.472;2022-09-17T07:40:05;12.20;99.90
14735;DHT22;7458;49.002;8.472;2022-09-17T07:42:32;12.30;99.90
14735;DHT22;7458;49.002;8.472;2022-09-17T07:44:58;12.40;99.90
14735;DHT22;7458;49.002;8.472;2022-09-17T07:47:24;12.80;99.90
14735;DHT22;7458;49.002;8.472;2022-09-17T07:49:49;13.50;99.90
14735;DHT22;7458;49.002;8.472;2022-09-17T07:52:15;13.60;99.90
14735;DHT22;7458;49.002;8.472;2022-09-17T07:54:41;13.40;99.90
14735;DHT22;7458;49.002;8.472;2022-09-17T07:57:06;13.40;99.90
14735;DHT22;7458;49.002;8.472;2022-09-17T07:59:32;13.40;99.90
14735;DHT22;7458;49.002;8.472;2022-09-17T08:01:58;13.30;99.90
14735;DHT22;7458;49.002;8.472;2022-09-17T08:04:24;13.10;99.90
14735;DHT22;7458;49.002;8.472;2022-09-17T08:06:50;13.00;99.90
14735;DHT22;7458;49.002;8.472;2022-09-17T08:09:16;13.00;99.90
14735;DHT22;7458;49.002;8.472;2022-09-17T08:11:43;13.20;99.90
14735;DHT22;7458;49.002;8.472;2022-09-17T08:14:14;13.20;99.90
14735;DHT22;7458;49.002;8.472;2022-09-17T08:16:40;13.20;99.90
14735;DHT22;7458;49.002;8.472;2022-09-17T08:19:06;13.30;99.90
14735;DHT22;7458;49.002;8.472;2022-09-17T08:21:35;13.50;99.90
14735;DHT22;7458;49.002;8.472;2022-09-17T08:24:01;13.50;99.90
14735;DHT22;7458;49.002;8.472;2022-09-17T08:26:27;13.40;99.90
14735;DHT22;7458;49.002;8.472;2022-09-17T08:28:54;13.40;99.90
14735;DHT22;7458;49.002;8.472;2022-09-17T08:31:22;13.60;99.90
14735;DHT22;7458;49.002;8.472;2022-09-17T08:33:49;13.80;99.90
14735;DHT22;7458;49.002;8.472;2022-09-17T08:36:17;13.90;99.90
14735;DHT22;7458;49.002;8.472;2022-09-17T08:38:45;14.20;99.90
14735;DHT22;7458;49.002;8.472;2022-09-17T08:41:41;14.40;99.90
14735;DHT22;7458;49.002;8.472;2022-09-17T08:46:49;14.80;99.90
14735;DHT22;7458;49.002;8.472;2022-09-17T08:49:35;14.60;99.90
14735;DHT22;7458;49.002;8.472;2022-09-17T08:52:45;14.20;99.90
14735;DHT22;7458;49.002;8.472;2022-09-17T09:07:25;14.50;99.90
14735;DHT22;7458;49.002;8.472;2022-09-17T09:12:48;15.10;99.90
14735;DHT22;7458;49.002;8.472;2022-09-17T09:18:10;16.00;99.90
14735;DHT22;7458;49.002;8.472;2022-09-17T09:20:57;16.70;99.90
14735;DHT22;7458;49.002;8.472;2022-09-17T09:35:43;18.80;99.90
14735;DHT22;7458;49.002;8.472;2022-09-17T09:38:32;18.80;99.90
14735;DHT22;7458;49.002;8.472;2022-09-17T09:41:10;19.00;99.90
14735;DHT22;7458;49.002;8.472;2022-09-17T09:43:46;18.40;99.20
14735;DHT22;7458;49.002;8.472;2022-09-17T09:52:22;18.70;96.40
14735;DHT22;7458;49.002;8.472;2022-09-17T09:55:33;18.60;96.80
14735;DHT22;7458;49.002;8.472;2022-09-17T09:58:23;18.00;96.60
14735;DHT22;7458;49.002;8.472;2022-09-17T10:00:58;18.30;97.90
14735;DHT22;7458;49.002;8.472;2022-09-17T10:03:31;18.40;97.10
14735;DHT22;7458;49.002;8.472;2022-09-17T10:06:09;18.80;97.30
14735;DHT22;7458;49.002;8.472;2022-09-17T10:11:22;19.20;95.00
14735;DHT22;7458;49.002;8.472;2022-09-17T10:13:52;19.10;94.20
14735;DHT22;7458;49.002;8.472;2022-09-17T10:16:25;18.80;94.00
14735;DHT22;7458;49.002;8.472;2022-09-17T10:21:38;18.40;95.00
14735;DHT22;7458;49.002;8.472;2022-09-17T10:24:24;18.30;94.40
14735;DHT22;7458;49.002;8.472;2022-09-17T10:27:00;18.00;95.00
14735;DHT22;7458;49.002;8.472;2022-09-17T10:29:29;17.80;94.40
14735;DHT22;7458;49.002;8.472;2022-09-17T10:31:56;17.50;94.80
14735;DHT22;7458;49.002;8.472;2022-09-17T10:34:28;17.40;95.30
14735;DHT22;7458;49.002;8.472;2022-09-17T10:36:55;17.30;96.00
14735;DHT22;7458;49.002;8.472;2022-09-17T10:42:15;18.10;96.60
14735;DHT22;7458;49.002;8.472;2022-09-17T10:45:03;18.60;95.30
14735;DHT22;7458;49.002;8.472;2022-09-17T10:47:51;19.30;94.10
14735;DHT22;7458;49.002;8.472;2022-09-17T10:52:54;19.00;92.90
14735;DHT22;7458;49.002;8.472;2022-09-17T11:04:24;18.60;93.60
14735;DHT22;7458;49.002;8.472;2022-09-17T11:10:02;17.40;99.20
14735;DHT22;7458;49.002;8.472;2022-09-17T11:18:29;17.50;99.90
14735;DHT22;7458;49.002;8.472;2022-09-17T11:30:19;17.40;99.90
14735;DHT22;7458;49.002;8.472;2022-09-17T11:33:16;17.20;99.90
14735;DHT22;7458;49.002;8.472;2022-09-17T11:35:55;16.90;99.90
14735;DHT22;7458;49.002;8.472;2022-09-17T11:41:22;16.50;99.90
14735;DHT22;7458;49.002;8.472;2022-09-17T11:44:19;16.40;99.90
14735;DHT22;7458;49.002;8.472;2022-09-17T11:46:54;16.40;99.90
14735;DHT22;7458;49.002;8.472;2022-09-17T11:50:13;16.30;99.90
14735;DHT22;7458;49.002;8.472;2022-09-17T11:55:50;16.10;99.90
14735;DHT22;7458;49.002;8.472;2022-09-17T11:58:34;16.00;99.90
14735;DHT22;7458;49.002;8.472;2022-09-17T12:01:11;16.30;99.90
14735;DHT22;7458;49.002;8.472;2022-09-17T12:03:52;16.80;99.90
14735;DHT22;7458;49.002;8.472;2022-09-17T12:06:46;16.00;99.90
14735;DHT22;7458;49.002;8.472;2022-09-17T12:09:22;15.50;99.90
14735;DHT22;7458;49.002;8.472;2022-09-17T12:12:03;15.10;99.90
14735;DHT22;7458;49.002;8.472;2022-09-17T12:17:24;14.40;99.90
14735;DHT22;7458;49.002;8.472;2022-09-17T12:20:05;14.10;99.90
14735;DHT22;7458;49.002;8.472;2022-09-17T12:22:42;14.00;99.90
14735;DHT22;7458;49.002;8.472;2022-09-17T12:25:12;13.90;99.90
14735;DHT22;7458;49.002;8.472;2022-09-17T12:30:22;13.90;99.90
14735;DHT22;7458;49.002;8.472;2022-09-17T12:33:17;14.10;99.90
14735;DHT22;7458;49.002;8.472;2022-09-17T12:39:26;14.30;99.90
14735;DHT22;7458;49.002;8.472;2022-09-17T12:42:23;14.40;99.90
14735;DHT22;7458;49.002;8.472;2022-09-17T12:45:20;14.70;99.90
14735;DHT22;7458;49.002;8.472;2022-09-17T12:50:49;15.00;99.90
14735;DHT22;7458;49.002;8.472;2022-09-17T13:12:26;15.20;99.90
14735;DHT22;7458;49.002;8.472;2022-09-17T13:19:03;15.40;99.90
14735;DHT22;7458;49.002;8.472;2022-09-17T13:21:52;15.60;99.90
14735;DHT22;7458;49.002;8.472;2022-09-17T13:24:26;15.50;99.90
14735;DHT22;7458;49.002;8.472;2022-09-17T13:26:56;15.50;99.90
14735;DHT22;7458;49.002;8.472;2022-09-17T13:45:31;15.20;99.90
14735;DHT22;7458;49.002;8.472;2022-09-17T13:48:07;15.20;99.90
14735;DHT22;7458;49.002;8.472;2022-09-17T13:55:42;15.30;99.90
14735;DHT22;7458;49.002;8.472;2022-09-17T14:00:54;15.20;99.90
14735;DHT22;7458;49.002;8.472;2022-09-17T14:16:32;15.40;99.90
14735;DHT22;7458;49.002;8.472;2022-09-17T14:19:32;15.10;99.90
14735;DHT22;7458;49.002;8.472;2022-09-17T14:33:10;15.20;99.90
14735;DHT22;7458;49.002;8.472;2022-09-17T14:36:13;15.50;99.90
14735;DHT22;7458;49.002;8.472;2022-09-17T14:38:50;15.80;99.90
14735;DHT22;7458;49.002;8.472;2022-09-17T14:41:23;15.90;99.90
14735;DHT22;7458;49.002;8.472;2022-09-17T14:44:02;16.10;99.90
14735;DHT22;7458;49.002;8.472;2022-09-17T14:46:31;16.50;99.90
14735;DHT22;7458;49.002;8.472;2022-09-17T14:51:53;16.80;99.90
14735;DHT22;7458;49.002;8.472;2022-09-17T14:54:32;16.90;99.90
14735;DHT22;7458;49.002;8.472;2022-09-17T14:57:09;16.90;99.90
14735;DHT22;7458;49.002;8.472;2022-09-17T15:05:11;16.90;99.90
14735;DHT22;7458;49.002;8.472;2022-09-17T15:07:40;16.90;99.90
14735;DHT22;7458;49.002;8.472;2022-09-17T15:10:15;16.90;99.90
14735;DHT22;7458;49.002;8.472;2022-09-17T15:12:45;16.80;99.90
14735;DHT22;7458;49.002;8.472;2022-09-17T15:15:23;16.60;99.90
14735;DHT22;7458;49.002;8.472;2022-09-17T15:17:51;16.40;99.90
14735;DHT22;7458;49.002;8.472;2022-09-17T15:20:21;16.30;99.90
14735;DHT22;7458;49.002;8.472;2022-09-17T15:23:01;16.30;99.90
14735;DHT22;7458;49.002;8.472;2022-09-17T15:25:29;16.20;99.90
14735;DHT22;7458;49.002;8.472;2022-09-17T15:27:58;16.20;99.90
14735;DHT22;7458;49.002;8.472;2022-09-17T15:30:29;16.10;99.90
14735;DHT22;7458;49.002;8.472;2022-09-17T15:32:59;16.10;99.90
14735;DHT22;7458;49.002;8.472;2022-09-17T15:35:29;16.10;99.90
14735;DHT22;7458;49.002;8.472;2022-09-17T15:37:59;16.20;99.90
14735;DHT22;7458;49.002;8.472;2022-09-17T15:40:43;16.20;99.90
14735;DHT22;7458;49.002;8.472;2022-09-17T15:45:56;16.30;99.90
14735;DHT22;7458;49.002;8.472;2022-09-17T15:48:39;16.40;99.90
14735;DHT22;7458;49.002;8.472;2022-09-17T15:51:38;16.50;99.90
14735;DHT22;7458;49.002;8.472;2022-09-17T15:54:05;16.50;99.90
14735;DHT22;7458;49.002;8.472;2022-09-17T15:56:36;16.60;99.90
14735;DHT22;7458;49.002;8.472;2022-09-17T15:59:28;16.50;99.90
14735;DHT22;7458;49.002;8.472;2022-09-17T16:01:59;16.50;99.90
14735;DHT22;7458;49.002;8.472;2022-09-17T16:04:31;16.40;99.90
14735;DHT22;7458;49.002;8.472;2022-09-17T16:12:11;16.20;99.90
14735;DHT22;7458;49.002;8.472;2022-09-17T16:14:47;16.20;99.90
14735;DHT22;7458;49.002;8.472;2022-09-17T16:17:26;16.10;99.90
14735;DHT22;7458;49.002;8.472;2022-09-17T16:19:56;16.00;99.90
14735;DHT22;7458;49.002;8.472;2022-09-17T16:22:22;15.80;99.90
14735;DHT22;7458;49.002;8.472;2022-09-17T16:24:48;15.70;99.90
14735;DHT22;7458;49.002;8.472;2022-09-17T16:27:19;15.70;99.90
14735;DHT22;7458;49.002;8.472;2022-09-17T16:29:50;15.50;99.90
14735;DHT22;7458;49.002;8.472;2022-09-17T16:32:20;15.40;99.90
14735;DHT22;7458;49.002;8.472;2022-09-17T16:34:46;15.30;99.90
14735;DHT22;7458;49.002;8.472;2022-09-17T16:37:11;15.20;99.90
14735;DHT22;7458;49.002;8.472;2022-09-17T16:39:37;15.10;99.90
14735;DHT22;7458;49.002;8.472;2022-09-17T16:42:03;14.90;99.90
14735;DHT22;7458;49.002;8.472;2022-09-17T16:44:28;14.90;99.90
14735;DHT22;7458;49.002;8.472;2022-09-17T16:46:54;14.80;99.90
14735;DHT22;7458;49.002;8.472;2022-09-17T16:49:20;14.70;99.90
14735;DHT22;7458;49.002;8.472;2022-09-17T16:51:45;14.70;99.90
14735;DHT22;7458;49.002;8.472;2022-09-17T16:54:11;14.60;99.90
14735;DHT22;7458;49.002;8.472;2022-09-17T16:56:37;14.50;99.90
14735;DHT22;7458;49.002;8.472;2022-09-17T16:59:02;14.20;99.90
14735;DHT22;7458;49.002;8.472;2022-09-17T17:01:28;14.10;99.90
14735;DHT22;7458;49.002;8.472;2022-09-17T17:03:54;13.90;99.90
14735;DHT22;7458;49.002;8.472;2022-09-17T17:06:23;13.90;99.90
14735;DHT22;7458;49.002;8.472;2022-09-17T17:08:49;13.80;99.90
14735;DHT22;7458;49.002;8.472;2022-09-17T17:11:16;13.80;99.90
14735;DHT22;7458;49.002;8.472;2022-09-17T17:13:42;13.70;99.90
14735;DHT22;7458;49.002;8.472;2022-09-17T17:16:10;13.70;99.90
14735;DHT22;7458;49.002;8.472;2022-09-17T17:18:40;13.70;99.90
14735;DHT22;7458;49.002;8.472;2022-09-17T17:21:10;13.70;99.90
14735;DHT22;7458;49.002;8.472;2022-09-17T17:23:37;13.60;99.90
14735;DHT22;7458;49.002;8.472;2022-09-17T17:26:03;13.70;99.90
14735;DHT22;7458;49.002;8.472;2022-09-17T17:28:32;13.70;99.90
14735;DHT22;7458;49.002;8.472;2022-09-17T17:30:59;13.70;99.90
14735;DHT22;7458;49.002;8.472;2022-09-17T17:33:25;13.70;99.90
14735;DHT22;7458;49.002;8.472;2022-09-17T17:35:51;13.80;99.90
14735;DHT22;7458;49.002;8.472;2022-09-17T17:38:17;13.70;99.90
14735;DHT22;7458;49.002;8.472;2022-09-17T17:40:43;13.70;99.90
14735;DHT22;7458;49.002;8.472;2022-09-17T17:43:10;13.80;99.90
14735;DHT22;7458;49.002;8.472;2022-09-17T17:45:39;13.70;99.90
14735;DHT22;7458;49.002;8.472;2022-09-17T17:48:05;13.70;99.90
14735;DHT22;7458;49.002;8.472;2022-09-17T17:50:32;13.80;99.90
14735;DHT22;7458;49.002;8.472;2022-09-17T17:52:58;13.80;99.90
14735;DHT22;7458;49.002;8.472;2022-09-17T17:55:24;13.80;99.90
14735;DHT22;7458;49.002;8.472;2022-09-17T17:57:56;13.70;99.90
14735;DHT22;7458;49.002;8.472;2022-09-17T18:00:23;13.70;99.90
14735;DHT22;7458;49.002;8.472;2022-09-17T18:02:50;13.70;99.90
14735;DHT22;7458;49.002;8.472;2022-09-17T18:05:16;13.70;99.90
14735;DHT22;7458;49.002;8.472;2022-09-17T18:07:41;13.70;99.90
14735;DHT22;7458;49.002;8.472;2022-09-17T18:10:08;13.70;99.90
14735;DHT22;7458;49.002;8.472;2022-09-17T18:12:34;13.60;99.90
14735;DHT22;7458;49.002;8.472;2022-09-17T18:15:02;13.70;99.90
14735;DHT22;7458;49.002;8.472;2022-09-17T18:17:28;13.50;99.90
14735;DHT22;7458;49.002;8.472;2022-09-17T18:19:55;13.50;99.90
14735;DHT22;7458;49.002;8.472;2022-09-17T18:22:22;13.40;99.90
14735;DHT22;7458;49.002;8.472;2022-09-17T18:24:48;13.40;99.90
14735;DHT22;7458;49.002;8.472;2022-09-17T18:27:14;13.20;99.90
14735;DHT22;7458;49.002;8.472;2022-09-17T18:29:39;13.00;99.90
14735;DHT22;7458;49.002;8.472;2022-09-17T18:32:05;13.00;99.90
14735;DHT22;7458;49.002;8.472;2022-09-17T18:34:31;12.80;99.90
14735;DHT22;7458;49.002;8.472;2022-09-17T18:36:56;12.70;99.90
14735;DHT22;7458;49.002;8.472;2022-09-17T18:39:22;12.60;99.90
14735;DHT22;7458;49.002;8.472;2022-09-17T18:41:48;12.60;99.90
14735;DHT22;7458;49.002;8.472;2022-09-17T18:44:15;12.50;99.90
14735;DHT22;7458;49.002;8.472;2022-09-17T18:46:43;12.50;99.90
14735;DHT22;7458;49.002;8.472;2022-09-17T18:49:09;12.30;99.90
14735;DHT22;7458;49.002;8.472;2022-09-17T18:51:36;12.10;99.90
14735;DHT22;7458;49.002;8.472;2022-09-17T18:54:02;12.00;99.90
14735;DHT22;7458;49.002;8.472;2022-09-17T18:56:30;11.90;99.90
14735;DHT22;7458;49.002;8.472;2022-09-17T18:58:58;11.90;99.90
14735;DHT22;7458;49.002;8.472;2022-09-17T19:01:26;11.90;99.90
14735;DHT22;7458;49.002;8.472;2022-09-17T19:03:55;11.80;99.90
14735;DHT22;7458;49.002;8.472;2022-09-17T19:06:22;11.80;99.90
14735;DHT22;7458;49.002;8.472;2022-09-17T19:08:49;11.70;99.90
14735;DHT22;7458;49.002;8.472;2022-09-17T19:11:15;11.70;99.90
14735;DHT22;7458;49.002;8.472;2022-09-17T19:13:43;11.60;99.90
14735;DHT22;7458;49.002;8.472;2022-09-17T19:16:11;11.50;99.90
14735;DHT22;7458;49.002;8.472;2022-09-17T19:18:39;11.40;99.90
14735;DHT22;7458;49.002;8.472;2022-09-17T19:21:08;11.50;99.90
14735;DHT22;7458;49.002;8.472;2022-09-17T19:23:44;11.40;99.90
14735;DHT22;7458;49.002;8.472;2022-09-17T19:26:13;11.40;99.90
14735;DHT22;7458;49.002;8.472;2022-09-17T19:28:41;11.40;99.90
14735;DHT22;7458;49.002;8.472;2022-09-17T19:31:09;11.20;99.90
14735;DHT22;7458;49.002;8.472;2022-09-17T19:33:36;11.10;99.90
14735;DHT22;7458;49.002;8.472;2022-09-17T19:36:04;11.10;99.90
14735;DHT22;7458;49.002;8.472;2022-09-17T19:38:32;11.10;99.90
14735;DHT22;7458;49.002;8.472;2022-09-17T19:41:00;11.10;99.90
14735;DHT22;7458;49.002;8.472;2022-09-17T19:43:29;11.00;99.90
14735;DHT22;7458;49.002;8.472;2022-09-17T19:46:03;11.00;99.90
14735;DHT22;7458;49.002;8.472;2022-09-17T19:48:31;11.00;99.90
14735;DHT22;7458;49.002;8.472;2022-09-17T19:51:00;11.00;99.90
14735;DHT22;7458;49.002;8.472;2022-09-17T19:53:25;11.00;99.90